createdAt,value
2022-08-28T00:00:37.172Z,1.50
2022-08-28T00:03:05.712Z,1.73
2022-08-28T00:05:33.898Z,2.30
2022-08-28T00:08:00.941Z,1.80
2022-08-28T00:10:28.228Z,1.90
2022-08-28T00:12:58.403Z,1.73
2022-08-28T00:15:31.993Z,1.87
2022-08-28T00:17:59.768Z,1.77
2022-08-28T00:20:27.698Z,1.70
2022-08-28T00:22:55.815Z,1.50
2022-08-28T00:25:25.989Z,2.00
2022-08-28T00:27:55.313Z,1.70
2022-08-28T00:30:26.545Z,2.17
2022-08-28T00:32:55.829Z,1.80
2022-08-28T00:35:23.925Z,1.30
2022-08-28T00:37:51.800Z,1.83
2022-08-28T00:40:28.911Z,1.43
2022-08-28T00:43:01.529Z,1.43
2022-08-28T00:45:29.724Z,1.80
2022-08-28T00:47:56.773Z,1.83
2022-08-28T00:50:27.297Z,2.00
2022-08-28T00:53:00.065Z,1.87
2022-08-28T00:55:29.104Z,1.53
2022-08-28T00:57:59.233Z,1.67
2022-08-28T01:00:34.931Z,1.67
2022-08-28T01:03:02.500Z,1.40
2022-08-28T01:05:30.195Z,1.57
2022-08-28T01:07:59.033Z,1.70
2022-08-28T01:10:28.961Z,1.60
2022-08-28T01:12:57.216Z,1.90
2022-08-28T01:15:34.418Z,1.80
2022-08-28T01:18:08.309Z,1.90
2022-08-28T01:20:39.194Z,1.73
2022-08-28T01:23:26.050Z,2.03
2022-08-28T01:25:52.987Z,1.57
2022-08-28T01:28:19.994Z,1.80
2022-08-28T01:30:48.249Z,1.57
2022-08-28T01:33:16.079Z,1.60
2022-08-28T01:35:45.381Z,1.50
2022-08-28T01:38:12.501Z,1.60
2022-08-28T01:40:47.208Z,1.63
2022-08-28T01:43:20.098Z,1.80
2022-08-28T01:45:53.292Z,1.60
2022-08-28T01:48:22.656Z,1.40
2022-08-28T01:50:50.142Z,1.73
2022-08-28T01:53:25.026Z,2.00
2022-08-28T01:55:53.658Z,1.33
2022-08-28T01:58:21.456Z,1.37
2022-08-28T02:00:48.435Z,1.70
2022-08-28T02:03:15.641Z,1.67
2022-08-28T02:05:43.276Z,1.57
2022-08-28T02:08:10.630Z,1.50
2022-08-28T02:10:39.100Z,1.80
2022-08-28T02:13:07.322Z,1.73
2022-08-28T02:15:35.937Z,1.50
2022-08-28T02:18:03.365Z,1.70
2022-08-28T02:20:30.764Z,1.43
2022-08-28T02:22:58.134Z,1.47
2022-08-28T02:25:25.315Z,2.17
2022-08-28T02:27:52.163Z,1.80
2022-08-28T02:30:19.072Z,1.60
2022-08-28T02:32:46.541Z,2.30
2022-08-28T02:35:16.239Z,1.43
2022-08-28T02:37:47.595Z,1.50
2022-08-28T02:40:15.865Z,1.80
2022-08-28T02:42:43.362Z,1.23
2022-08-28T02:45:11.960Z,1.63
2022-08-28T02:47:43.859Z,1.53
2022-08-28T02:50:13.259Z,2.03
2022-08-28T02:52:41.567Z,1.63
2022-08-28T02:55:09.915Z,1.40
2022-08-28T02:57:36.806Z,1.50
2022-08-28T03:00:10.377Z,1.80
2022-08-28T03:02:37.317Z,1.93
2022-08-28T03:05:04.696Z,1.93
2022-08-28T03:07:31.615Z,1.67
2022-08-28T03:09:58.507Z,1.50
2022-08-28T03:12:25.634Z,1.30
2022-08-28T03:14:53.454Z,2.20
2022-08-28T03:17:21.731Z,1.30
2022-08-28T03:19:50.333Z,1.83
2022-08-28T03:22:18.737Z,1.53
2022-08-28T03:24:46.024Z,1.57
2022-08-28T03:27:13.033Z,1.50
2022-08-28T03:29:39.984Z,1.23
2022-08-28T03:32:06.900Z,1.43
2022-08-28T03:34:33.846Z,2.00
2022-08-28T03:37:01.422Z,1.20
2022-08-28T03:39:28.281Z,1.60
2022-08-28T03:41:55.206Z,1.50
2022-08-28T03:44:22.207Z,1.60
2022-08-28T03:46:49.097Z,1.70
2022-08-28T03:49:16.094Z,1.67
2022-08-28T03:51:44.308Z,1.50
2022-08-28T03:54:11.153Z,1.90
2022-08-28T03:56:38.180Z,1.70
2022-08-28T03:59:05.582Z,1.80
2022-08-28T04:01:33.856Z,1.60
2022-08-28T04:04:00.874Z,1.40
2022-08-28T04:06:28.244Z,1.73
2022-08-28T04:08:55.581Z,1.47
2022-08-28T04:11:27.202Z,1.37
2022-08-28T04:13:54.153Z,1.60
2022-08-28T04:16:21.116Z,1.70
2022-08-28T04:18:49.539Z,1.50
2022-08-28T04:21:23.868Z,1.30
2022-08-28T04:23:51.045Z,1.60
2022-08-28T04:26:20.533Z,1.73
2022-08-28T04:28:48.753Z,1.90
2022-08-28T04:31:17.109Z,1.37
2022-08-28T04:33:44.143Z,1.40
2022-08-28T04:36:14.823Z,1.40
2022-08-28T04:38:44.081Z,1.10
2022-08-28T04:41:13.232Z,1.67
2022-08-28T04:43:40.269Z,1.37
2022-08-28T04:46:10.666Z,1.90
2022-08-28T04:48:38.154Z,1.50
2022-08-28T04:51:07.080Z,1.60
2022-08-28T04:53:33.910Z,1.90
2022-08-28T04:56:04.580Z,1.80
2022-08-28T04:58:33.699Z,1.27
2022-08-28T05:01:09.035Z,1.50
2022-08-28T05:03:36.102Z,1.80
2022-08-28T05:06:03.925Z,1.50
2022-08-28T05:08:31.540Z,2.10
2022-08-28T05:10:58.760Z,1.80
2022-08-28T05:13:27.949Z,1.97
2022-08-28T05:15:55.516Z,1.37
2022-08-28T05:18:24.020Z,1.57
2022-08-28T05:20:51.886Z,1.73
2022-08-28T05:23:25.447Z,2.00
2022-08-28T05:25:53.137Z,1.80
2022-08-28T05:28:20.906Z,1.83
2022-08-28T05:30:50.234Z,2.33
2022-08-28T05:33:17.288Z,1.90
2022-08-28T05:35:45.638Z,1.80
2022-08-28T05:38:14.446Z,2.37
2022-08-28T05:40:44.087Z,1.80
2022-08-28T05:43:12.169Z,1.80
2022-08-28T05:45:39.100Z,2.20
2022-08-28T05:48:06.303Z,2.00
2022-08-28T05:50:33.590Z,1.57
2022-08-28T05:53:01.625Z,1.73
2022-08-28T05:55:28.582Z,1.50
2022-08-28T05:57:55.405Z,2.10
2022-08-28T06:00:22.307Z,1.77
2022-08-28T06:02:49.152Z,1.90
2022-08-28T06:05:17.572Z,1.60
2022-08-28T06:07:44.452Z,1.60
2022-08-28T06:10:11.362Z,1.43
2022-08-28T06:12:38.425Z,1.57
2022-08-28T06:15:06.193Z,1.90
2022-08-28T06:17:33.195Z,1.83
2022-08-28T06:20:00.069Z,1.47
2022-08-28T06:22:26.950Z,1.67
2022-08-28T06:24:54.131Z,1.70
2022-08-28T06:27:20.985Z,1.80
2022-08-28T06:29:47.890Z,1.37
2022-08-28T06:32:14.846Z,1.77
2022-08-28T06:34:41.899Z,1.63
2022-08-28T06:37:10.066Z,1.83
2022-08-28T06:39:36.997Z,1.80
2022-08-28T06:42:05.631Z,1.50
2022-08-28T06:44:32.779Z,1.53
2022-08-28T06:47:00.653Z,1.50
2022-08-28T06:49:27.566Z,1.80
2022-08-28T06:51:56.055Z,1.70
2022-08-28T06:54:23.640Z,1.37
2022-08-28T06:56:51.820Z,1.60
2022-08-28T06:59:18.830Z,1.60
2022-08-28T07:01:45.769Z,1.47
2022-08-28T07:04:14.827Z,1.87
2022-08-28T07:06:47.103Z,1.57
2022-08-28T07:09:15.352Z,1.77
2022-08-28T07:11:44.959Z,1.30
2022-08-28T07:14:12.090Z,1.30
2022-08-28T07:16:39.283Z,1.60
2022-08-28T07:19:11.355Z,1.67
2022-08-28T07:21:40.481Z,1.30
2022-08-28T07:24:08.921Z,1.30
2022-08-28T07:26:35.947Z,1.50
2022-08-28T07:29:10.520Z,1.30
2022-08-28T07:31:44.526Z,1.40
2022-08-28T07:34:12.761Z,1.50
2022-08-28T07:36:40.023Z,1.73
2022-08-28T07:39:08.522Z,1.40
2022-08-28T07:41:39.433Z,1.20
2022-08-28T07:44:26.163Z,1.67
2022-08-28T07:46:57.932Z,1.40
2022-08-28T07:49:25.674Z,1.37
2022-08-28T07:51:54.177Z,1.33
2022-08-28T07:54:22.037Z,1.73
2022-08-28T07:56:48.954Z,1.23
2022-08-28T07:59:19.254Z,1.50
2022-08-28T08:01:48.328Z,1.60
2022-08-28T08:04:17.597Z,1.37
2022-08-28T08:06:45.287Z,1.00
2022-08-28T08:09:15.781Z,1.43
2022-08-28T08:11:43.224Z,1.40
2022-08-28T08:14:11.092Z,1.37
2022-08-28T08:16:41.086Z,1.50
2022-08-28T08:19:14.178Z,1.40
2022-08-28T08:21:46.049Z,1.30
2022-08-28T08:24:21.183Z,1.40
2022-08-28T08:26:56.499Z,1.40
2022-08-28T08:29:27.557Z,1.30
2022-08-28T08:31:57.345Z,1.53
2022-08-28T08:34:24.344Z,1.20
2022-08-28T08:36:51.481Z,1.37
2022-08-28T08:39:18.505Z,1.10
2022-08-28T08:41:48.591Z,1.10
2022-08-28T08:44:33.945Z,1.53
2022-08-28T08:47:19.665Z,1.07
2022-08-28T08:49:57.378Z,1.30
2022-08-28T08:52:33.552Z,1.40
2022-08-28T08:55:17.749Z,1.47
2022-08-28T08:57:49.196Z,1.23
2022-08-28T09:00:17.200Z,1.23
2022-08-28T09:02:54.332Z,1.60
2022-08-28T09:05:26.846Z,1.40
2022-08-28T09:07:59.327Z,1.43
2022-08-28T09:10:36.960Z,1.33
2022-08-28T09:13:13.800Z,1.07
2022-08-28T09:15:47.538Z,1.20
2022-08-28T09:18:27.763Z,1.50
2022-08-28T09:20:57.275Z,1.20
2022-08-28T09:23:32.709Z,1.10
2022-08-28T09:26:03.919Z,1.13
2022-08-28T09:28:38.580Z,1.07
2022-08-28T09:31:14.407Z,1.53
2022-08-28T09:33:45.309Z,1.57
2022-08-28T09:36:34.669Z,1.10
2022-08-28T09:39:35.822Z,1.23
2022-08-28T09:42:44.073Z,1.20
2022-08-28T09:45:16.652Z,1.40
2022-08-28T09:47:51.679Z,1.40
2022-08-28T09:50:41.004Z,1.30
2022-08-28T09:53:10.651Z,1.57
2022-08-28T09:55:52.736Z,1.23
2022-08-28T09:58:20.960Z,1.10
2022-08-28T10:00:57.308Z,1.17
2022-08-28T10:03:33.941Z,1.10
2022-08-28T10:06:17.811Z,0.97
2022-08-28T10:08:55.216Z,1.00
2022-08-28T10:11:44.586Z,1.40
2022-08-28T10:14:24.339Z,1.17
2022-08-28T10:17:03.332Z,1.30
2022-08-28T10:19:54.007Z,1.10
2022-08-28T10:22:59.243Z,1.20
2022-08-28T10:25:33.213Z,1.50
2022-08-28T10:28:21.297Z,1.23
2022-08-28T10:31:20.850Z,1.03
2022-08-28T10:34:32.823Z,1.50
2022-08-28T10:37:24.569Z,1.30
2022-08-28T10:39:55.069Z,1.20
2022-08-28T10:42:44.737Z,1.30
2022-08-28T10:45:17.229Z,1.27
2022-08-28T10:47:47.435Z,1.60
2022-08-28T10:50:50.996Z,1.27
2022-08-28T10:53:23.405Z,1.50
2022-08-28T10:55:57.660Z,1.23
2022-08-28T10:58:27.219Z,1.10
2022-08-28T11:00:56.333Z,1.43
2022-08-28T11:03:34.279Z,1.30
2022-08-28T11:06:11.825Z,1.00
2022-08-28T11:08:39.964Z,1.30
2022-08-28T11:11:14.975Z,1.30
2022-08-28T11:13:51.518Z,1.00
2022-08-28T11:16:24.854Z,1.20
2022-08-28T11:19:14.494Z,1.10
2022-08-28T11:21:46.793Z,1.13
2022-08-28T11:24:29.108Z,1.20
2022-08-28T11:27:06.729Z,1.30
2022-08-28T11:30:04.112Z,1.13
2022-08-28T11:32:33.944Z,1.20
2022-08-28T11:35:29.654Z,1.00
2022-08-28T11:37:58.482Z,1.00
2022-08-28T11:40:28.455Z,1.17
2022-08-28T11:43:16.213Z,1.10
2022-08-28T11:45:45.847Z,1.23
2022-08-28T11:48:28.680Z,0.90
2022-08-28T11:51:04.029Z,1.10
2022-08-28T11:53:44.282Z,1.17
2022-08-28T11:56:31.832Z,1.07
2022-08-28T11:59:20.657Z,1.23
2022-08-28T12:01:49.532Z,1.10
2022-08-28T12:04:19.130Z,0.93
2022-08-28T12:06:47.561Z,0.90
2022-08-28T12:09:26.685Z,1.03
2022-08-28T12:11:59.418Z,1.33
2022-08-28T12:14:26.238Z,0.83
2022-08-28T12:16:59.195Z,0.83
2022-08-28T12:19:55.952Z,0.90
2022-08-28T12:22:26.581Z,1.07
2022-08-28T12:25:02.779Z,0.70
2022-08-28T12:27:29.975Z,0.97
2022-08-28T12:30:00.067Z,0.97
2022-08-28T12:32:54.508Z,1.10
2022-08-28T12:35:24.079Z,1.10
2022-08-28T12:37:54.070Z,1.07
2022-08-28T12:40:31.631Z,1.20
2022-08-28T12:43:05.861Z,0.90
2022-08-28T12:45:52.331Z,0.70
2022-08-28T12:48:47.308Z,1.00
2022-08-28T12:51:19.412Z,1.00
2022-08-28T12:53:49.091Z,0.90
2022-08-28T12:56:18.739Z,1.17
2022-08-28T12:58:46.264Z,1.53
2022-08-28T13:01:32.443Z,1.00
2022-08-28T13:04:02.572Z,1.07
2022-08-28T13:06:31.695Z,1.00
2022-08-28T13:09:15.966Z,0.97
2022-08-28T13:11:47.696Z,0.90
2022-08-28T13:14:34.526Z,0.90
2022-08-28T13:17:01.624Z,1.00
2022-08-28T13:19:30.575Z,0.90
2022-08-28T13:22:01.997Z,1.00
2022-08-28T13:24:31.485Z,0.97
2022-08-28T13:27:16.585Z,1.20
2022-08-28T13:30:08.711Z,0.90
2022-08-28T13:32:39.056Z,1.17
2022-08-28T13:35:32.837Z,0.70
2022-08-28T13:38:02.479Z,1.00
2022-08-28T13:40:57.331Z,0.83
2022-08-28T13:43:27.717Z,1.10
2022-08-28T13:45:54.742Z,0.90
2022-08-28T13:48:23.815Z,1.00
2022-08-28T13:51:16.391Z,0.77
2022-08-28T13:53:48.383Z,0.90
2022-08-28T13:56:17.144Z,0.77
2022-08-28T13:58:47.889Z,1.20
2022-08-28T14:01:44.532Z,0.93
2022-08-28T14:04:13.423Z,1.00
2022-08-28T14:06:44.192Z,1.00
2022-08-28T14:09:17.493Z,0.80
2022-08-28T14:11:46.623Z,0.90
2022-08-28T14:14:13.484Z,1.03
2022-08-28T14:16:41.027Z,1.00
2022-08-28T14:19:08.439Z,1.20
2022-08-28T14:21:37.077Z,1.10
2022-08-28T14:24:04.616Z,0.80
2022-08-28T14:26:31.924Z,1.00
2022-08-28T14:29:00.255Z,1.00
2022-08-28T14:31:27.776Z,1.10
2022-08-28T14:33:55.504Z,1.00
2022-08-28T14:36:25.927Z,1.00
2022-08-28T14:38:54.611Z,0.80
2022-08-28T14:41:25.932Z,0.90
2022-08-28T14:43:53.937Z,0.90
2022-08-28T14:46:23.525Z,0.80
2022-08-28T14:48:50.734Z,1.10
2022-08-28T14:51:18.493Z,1.03
2022-08-28T14:53:45.384Z,1.30
2022-08-28T14:56:12.284Z,1.00
2022-08-28T14:58:39.508Z,1.40
2022-08-28T15:01:07.378Z,0.70
2022-08-28T15:03:34.483Z,0.90
2022-08-28T15:06:03.397Z,1.00
2022-08-28T15:08:30.703Z,0.97
2022-08-28T15:10:58.129Z,1.10
2022-08-28T15:13:25.219Z,1.27
2022-08-28T15:16:15.559Z,0.80
2022-08-28T15:18:43.361Z,0.87
2022-08-28T15:21:41.495Z,0.87
2022-08-28T15:24:10.064Z,0.80
2022-08-28T15:26:38.053Z,1.10
2022-08-28T15:29:07.188Z,0.90
2022-08-28T15:31:36.842Z,1.00
2022-08-28T15:34:13.425Z,0.93
2022-08-28T15:36:41.369Z,0.97
2022-08-28T15:39:28.130Z,0.87
2022-08-28T15:41:56.025Z,0.80
2022-08-28T15:44:23.311Z,0.90
2022-08-28T15:47:00.056Z,0.90
2022-08-28T15:49:29.741Z,1.00
2022-08-28T15:51:59.249Z,0.97
2022-08-28T15:54:26.766Z,0.63
2022-08-28T15:56:54.012Z,0.70
2022-08-28T15:59:22.128Z,0.90
2022-08-28T16:01:50.741Z,0.70
2022-08-28T16:04:18.099Z,0.70
2022-08-28T16:06:46.150Z,0.80
2022-08-28T16:09:13.579Z,0.90
2022-08-28T16:11:42.714Z,0.97
2022-08-28T16:14:16.817Z,0.60
2022-08-28T16:16:46.656Z,0.80
2022-08-28T16:19:17.894Z,0.80
2022-08-28T16:21:44.767Z,0.70
2022-08-28T16:24:11.696Z,0.93
2022-08-28T16:26:38.560Z,0.90
2022-08-28T16:29:05.449Z,1.10
2022-08-28T16:31:34.372Z,1.00
2022-08-28T16:34:03.177Z,0.80
2022-08-28T16:36:31.238Z,0.93
2022-08-28T16:39:03.682Z,0.80
2022-08-28T16:41:31.865Z,0.80
2022-08-28T16:43:59.475Z,0.80
2022-08-28T16:46:27.613Z,1.00
2022-08-28T16:48:54.910Z,0.80
2022-08-28T16:51:27.081Z,1.00
2022-08-28T16:53:54.831Z,1.20
2022-08-28T16:56:23.777Z,1.00
2022-08-28T16:58:53.102Z,0.70
2022-08-28T17:01:24.026Z,0.83
2022-08-28T17:03:53.054Z,0.80
2022-08-28T17:06:23.588Z,0.93
2022-08-28T17:08:56.465Z,0.93
2022-08-28T17:11:24.711Z,0.70
2022-08-28T17:13:51.567Z,0.80
2022-08-28T17:16:19.454Z,0.70
2022-08-28T17:18:48.340Z,0.90
2022-08-28T17:21:38.734Z,1.07
2022-08-28T17:24:05.940Z,0.83
2022-08-28T17:26:32.955Z,0.93
2022-08-28T17:28:59.796Z,0.90
2022-08-28T17:31:26.736Z,0.77
2022-08-28T17:33:53.754Z,1.00
2022-08-28T17:36:25.646Z,0.90
2022-08-28T17:39:01.769Z,1.10
2022-08-28T17:41:28.662Z,1.30
2022-08-28T17:43:55.664Z,0.83
2022-08-28T17:46:22.787Z,1.13
2022-08-28T17:48:55.856Z,1.20
2022-08-28T17:51:33.156Z,0.90
2022-08-28T17:54:16.881Z,0.83
2022-08-28T17:56:45.085Z,0.90
2022-08-28T17:59:12.271Z,1.10
2022-08-28T18:01:39.306Z,1.73
2022-08-28T18:04:06.253Z,1.43
2022-08-28T18:06:33.488Z,1.00
2022-08-28T18:09:00.667Z,0.80
2022-08-28T18:11:28.438Z,1.03
2022-08-28T18:13:55.393Z,1.10
2022-08-28T18:16:23.265Z,0.93
2022-08-28T18:18:52.432Z,1.63
2022-08-28T18:21:20.272Z,1.00
2022-08-28T18:23:47.196Z,1.00
2022-08-28T18:26:14.099Z,1.10
2022-08-28T18:28:41.249Z,1.10
2022-08-28T18:31:08.338Z,1.23
2022-08-28T18:33:37.293Z,0.97
2022-08-28T18:36:07.330Z,1.00
2022-08-28T18:38:35.731Z,0.93
2022-08-28T18:41:03.859Z,1.03
2022-08-28T18:43:30.898Z,1.27
2022-08-28T18:46:00.111Z,1.30
2022-08-28T18:48:27.480Z,1.20
2022-08-28T18:50:54.331Z,1.10
2022-08-28T18:53:22.414Z,1.10
2022-08-28T18:55:52.826Z,1.20
2022-08-28T18:58:22.008Z,1.37
2022-08-28T19:00:49.686Z,0.93
2022-08-28T19:03:16.578Z,1.27
2022-08-28T19:05:43.509Z,1.13
2022-08-28T19:08:10.476Z,1.00
2022-08-28T19:10:38.268Z,1.07
2022-08-28T19:13:05.951Z,1.10
2022-08-28T19:15:33.828Z,0.90
2022-08-28T19:18:01.535Z,1.17
2022-08-28T19:20:29.309Z,1.20
2022-08-28T19:22:57.554Z,1.27
2022-08-28T19:25:28.365Z,1.40
2022-08-28T19:27:59.870Z,1.50
2022-08-28T19:30:33.175Z,1.53
2022-08-28T19:33:02.530Z,1.30
2022-08-28T19:35:29.453Z,1.40
2022-08-28T19:37:56.556Z,1.47
2022-08-28T19:40:23.599Z,1.53
2022-08-28T19:42:50.569Z,1.70
2022-08-28T19:45:18.102Z,1.40
2022-08-28T19:47:45.125Z,1.60
2022-08-28T19:50:12.800Z,1.60
2022-08-28T19:52:40.518Z,1.40
2022-08-28T19:55:08.106Z,1.50
2022-08-28T19:57:35.386Z,1.30
2022-08-28T20:00:04.084Z,1.37
2022-08-28T20:02:31.183Z,1.20
2022-08-28T20:04:58.072Z,1.90
2022-08-28T20:07:25.242Z,1.57
2022-08-28T20:09:52.494Z,1.60
2022-08-28T20:12:20.109Z,1.50
2022-08-28T20:14:47.575Z,1.80
2022-08-28T20:17:14.522Z,1.70
2022-08-28T20:19:41.669Z,1.67
2022-08-28T20:22:08.719Z,1.60
2022-08-28T20:24:35.586Z,1.63
2022-08-28T20:27:02.457Z,1.53
2022-08-28T20:29:29.472Z,1.90
2022-08-28T20:31:56.805Z,2.13
2022-08-28T20:34:24.659Z,1.70
2022-08-28T20:36:51.994Z,1.80
2022-08-28T20:39:20.473Z,1.93
2022-08-28T20:41:48.256Z,1.70
2022-08-28T20:44:18.059Z,1.77
2022-08-28T20:46:51.549Z,1.57
2022-08-28T20:49:25.353Z,1.70
2022-08-28T20:52:03.968Z,1.60
2022-08-28T20:54:42.742Z,1.53
2022-08-28T20:57:13.195Z,1.40
2022-08-28T20:59:43.213Z,1.80
2022-08-28T21:02:15.689Z,2.13
2022-08-28T21:04:44.607Z,2.17
2022-08-28T21:07:14.194Z,1.70
2022-08-28T21:10:04.231Z,1.43
2022-08-28T21:12:30.395Z,1.60
2022-08-28T21:14:59.212Z,2.03
2022-08-28T21:17:29.868Z,1.80
2022-08-28T21:20:04.246Z,1.47
2022-08-28T21:22:41.964Z,2.00
2022-08-28T21:25:11.556Z,2.80
2022-08-28T21:27:38.597Z,2.00
2022-08-28T21:30:07.853Z,1.60
2022-08-28T21:32:36.929Z,1.70
2022-08-28T21:35:06.700Z,1.33
2022-08-28T21:37:33.697Z,1.77
2022-08-28T21:40:00.959Z,1.73
2022-08-28T21:42:29.065Z,1.60
2022-08-28T21:44:55.891Z,1.60
2022-08-28T21:47:23.860Z,1.70
2022-08-28T21:49:52.418Z,1.83
2022-08-28T21:52:22.079Z,1.73
2022-08-28T21:54:49.272Z,1.90
2022-08-28T21:57:17.889Z,1.83
2022-08-28T21:59:44.743Z,2.00
2022-08-28T22:02:11.658Z,1.77
2022-08-28T22:04:38.887Z,1.80
2022-08-28T22:07:06.727Z,1.73
2022-08-28T22:09:33.584Z,2.07
2022-08-28T22:12:00.598Z,1.80
2022-08-28T22:14:28.727Z,1.67
2022-08-28T22:16:55.818Z,2.17
2022-08-28T22:19:22.808Z,2.10
2022-08-28T22:22:08.478Z,2.13
2022-08-28T22:24:36.767Z,1.93
2022-08-28T22:27:04.437Z,1.77
2022-08-28T22:29:36.605Z,1.90
2022-08-28T22:32:07.827Z,2.13
2022-08-28T22:34:43.586Z,2.23
2022-08-28T22:37:11.799Z,1.83
2022-08-28T22:39:39.696Z,2.43
2022-08-28T22:42:06.838Z,1.97
2022-08-28T22:44:33.981Z,1.63
2022-08-28T22:47:00.813Z,1.50
2022-08-28T22:49:27.675Z,1.90
2022-08-28T22:51:54.601Z,2.20
2022-08-28T22:54:21.453Z,1.70
2022-08-28T22:56:48.348Z,1.90
2022-08-28T22:59:15.285Z,2.27
2022-08-28T23:01:43.044Z,2.10
2022-08-28T23:04:11.070Z,2.20
2022-08-28T23:06:41.084Z,2.20
2022-08-28T23:09:09.243Z,2.07
2022-08-28T23:11:36.928Z,1.87
2022-08-28T23:14:05.545Z,2.03
2022-08-28T23:16:33.117Z,2.30
2022-08-28T23:19:09.294Z,2.20
2022-08-28T23:21:40.822Z,2.30
2022-08-28T23:24:12.163Z,1.70
2022-08-28T23:26:39.117Z,2.70
2022-08-28T23:29:06.049Z,1.90
2022-08-28T23:31:32.991Z,1.90
2022-08-28T23:34:00.270Z,1.77
2022-08-28T23:36:27.155Z,2.10
2022-08-28T23:38:54.043Z,2.13
2022-08-28T23:41:21.057Z,1.90
2022-08-28T23:43:49.033Z,2.17
2022-08-28T23:46:19.639Z,1.70
2022-08-28T23:48:49.692Z,2.40
2022-08-28T23:51:17.516Z,2.17
2022-08-28T23:53:45.475Z,2.13
2022-08-28T23:56:12.811Z,1.93
2022-08-28T23:58:43.347Z,2.10
